sensor_id;sensor_type;location;lat;lon;timestamp;P1;durP1;ratioP1;P2;durP2;ratioP2
24715;SDS011;12822;50.124;8.678;2024-03-23T00:55:29;25.33;;;14.88;;
24715;SDS011;12822;50.124;8.678;2024-03-23T00:57:55;24.13;;;13.98;;
24715;SDS011;12822;50.124;8.678;2024-03-23T01:00:20;22.20;;;14.48;;
24715;SDS011;12822;50.124;8.678;2024-03-23T01:02:46;24.80;;;14.02;;
24715;SDS011;12822;50.124;8.678;2024-03-23T01:05:12;23.27;;;14.18;;
24715;SDS011;12822;50.124;8.678;2024-03-23T01:07:38;20.95;;;13.15;;
24715;SDS011;12822;50.124;8.678;2024-03-23T01:10:04;27.13;;;14.57;;
24715;SDS011;12822;50.124;8.678;2024-03-23T01:12:30;29.17;;;14.98;;
24715;SDS011;12822;50.124;8.678;2024-03-23T01:14:56;24.83;;;15.57;;
24715;SDS011;12822;50.124;8.678;2024-03-23T01:17:22;31.25;;;15.27;;
24715;SDS011;12822;50.124;8.678;2024-03-23T01:19:48;25.73;;;16.02;;
24715;SDS011;12822;50.124;8.678;2024-03-23T01:22:14;24.52;;;15.82;;
24715;SDS011;12822;50.124;8.678;2024-03-23T01:24:40;25.00;;;15.32;;
24715;SDS011;12822;50.124;8.678;2024-03-23T01:27:06;23.08;;;14.48;;
24715;SDS011;12822;50.124;8.678;2024-03-23T01:29:32;27.92;;;15.57;;
24715;SDS011;12822;50.124;8.678;2024-03-23T01:31:58;24.33;;;15.18;;
24715;SDS011;12822;50.124;8.678;2024-03-23T01:34:24;23.88;;;15.13;;
24715;SDS011;12822;50.124;8.678;2024-03-23T01:36:50;24.83;;;15.55;;
24715;SDS011;12822;50.124;8.678;2024-03-23T01:39:16;26.55;;;15.80;;
24715;SDS011;12822;50.124;8.678;2024-03-23T01:41:42;25.88;;;15.70;;
24715;SDS011;12822;50.124;8.678;2024-03-23T01:44:09;26.05;;;16.00;;
24715;SDS011;12822;50.124;8.678;2024-03-23T01:46:36;26.42;;;15.93;;
24715;SDS011;12822;50.124;8.678;2024-03-23T01:49:03;28.98;;;16.52;;
24715;SDS011;12822;50.124;8.678;2024-03-23T01:51:30;26.60;;;15.65;;
24715;SDS011;12822;50.124;8.678;2024-03-23T01:53:56;28.98;;;15.25;;
24715;SDS011;12822;50.124;8.678;2024-03-23T01:56:22;25.60;;;15.95;;
24715;SDS011;12822;50.124;8.678;2024-03-23T01:58:48;25.45;;;15.75;;
24715;SDS011;12822;50.124;8.678;2024-03-23T02:01:15;31.05;;;17.00;;
24715;SDS011;12822;50.124;8.678;2024-03-23T02:03:41;27.65;;;17.85;;
24715;SDS011;12822;50.124;8.678;2024-03-23T02:06:07;30.30;;;17.15;;
24715;SDS011;12822;50.124;8.678;2024-03-23T02:08:33;31.77;;;17.08;;
24715;SDS011;12822;50.124;8.678;2024-03-23T02:11:00;23.80;;;15.68;;
24715;SDS011;12822;50.124;8.678;2024-03-23T02:13:26;23.73;;;15.43;;
24715;SDS011;12822;50.124;8.678;2024-03-23T02:15:52;27.33;;;15.48;;
24715;SDS011;12822;50.124;8.678;2024-03-23T02:18:18;26.70;;;16.05;;
24715;SDS011;12822;50.124;8.678;2024-03-23T02:20:44;25.15;;;17.00;;
24715;SDS011;12822;50.124;8.678;2024-03-23T02:23:13;27.05;;;16.85;;
24715;SDS011;12822;50.124;8.678;2024-03-23T02:25:39;26.38;;;16.42;;
24715;SDS011;12822;50.124;8.678;2024-03-23T02:28:05;27.05;;;16.45;;
24715;SDS011;12822;50.124;8.678;2024-03-23T02:30:31;27.25;;;16.42;;
24715;SDS011;12822;50.124;8.678;2024-03-23T02:32:57;27.30;;;16.70;;
24715;SDS011;12822;50.124;8.678;2024-03-23T02:35:23;24.50;;;16.13;;
24715;SDS011;12822;50.124;8.678;2024-03-23T02:37:49;28.98;;;17.35;;
24715;SDS011;12822;50.124;8.678;2024-03-23T02:40:16;29.67;;;18.42;;
24715;SDS011;12822;50.124;8.678;2024-03-23T02:42:42;31.65;;;18.08;;
24715;SDS011;12822;50.124;8.678;2024-03-23T02:45:08;32.78;;;19.13;;
24715;SDS011;12822;50.124;8.678;2024-03-23T02:47:34;30.05;;;17.88;;
24715;SDS011;12822;50.124;8.678;2024-03-23T02:50:00;34.47;;;19.20;;
24715;SDS011;12822;50.124;8.678;2024-03-23T02:52:26;32.70;;;18.00;;
24715;SDS011;12822;50.124;8.678;2024-03-23T02:54:52;31.08;;;19.38;;
24715;SDS011;12822;50.124;8.678;2024-03-23T02:57:18;33.55;;;19.20;;
24715;SDS011;12822;50.124;8.678;2024-03-23T02:59:44;30.05;;;18.15;;
24715;SDS011;12822;50.124;8.678;2024-03-23T03:02:11;30.63;;;18.65;;
24715;SDS011;12822;50.124;8.678;2024-03-23T03:04:37;30.60;;;17.88;;
24715;SDS011;12822;50.124;8.678;2024-03-23T03:07:03;28.45;;;16.92;;
24715;SDS011;12822;50.124;8.678;2024-03-23T03:09:29;33.47;;;18.45;;
24715;SDS011;12822;50.124;8.678;2024-03-23T03:11:55;33.88;;;18.15;;
24715;SDS011;12822;50.124;8.678;2024-03-23T03:14:21;30.08;;;18.40;;
24715;SDS011;12822;50.124;8.678;2024-03-23T03:16:47;32.28;;;17.90;;
24715;SDS011;12822;50.124;8.678;2024-03-23T03:19:13;33.47;;;18.55;;
24715;SDS011;12822;50.124;8.678;2024-03-23T03:21:41;30.60;;;18.58;;
24715;SDS011;12822;50.124;8.678;2024-03-23T03:24:07;31.25;;;18.75;;
24715;SDS011;12822;50.124;8.678;2024-03-23T03:26:33;37.13;;;18.88;;
24715;SDS011;12822;50.124;8.678;2024-03-23T03:28:59;32.53;;;18.85;;
24715;SDS011;12822;50.124;8.678;2024-03-23T03:31:25;31.52;;;19.13;;
24715;SDS011;12822;50.124;8.678;2024-03-23T03:33:51;30.60;;;19.15;;
24715;SDS011;12822;50.124;8.678;2024-03-23T03:36:17;34.50;;;19.55;;
24715;SDS011;12822;50.124;8.678;2024-03-23T03:38:43;32.13;;;18.85;;
24715;SDS011;12822;50.124;8.678;2024-03-23T03:41:09;30.45;;;18.90;;
24715;SDS011;12822;50.124;8.678;2024-03-23T03:43:35;37.72;;;19.65;;
24715;SDS011;12822;50.124;8.678;2024-03-23T03:46:01;39.70;;;19.15;;
24715;SDS011;12822;50.124;8.678;2024-03-23T03:48:28;27.08;;;17.73;;
24715;SDS011;12822;50.124;8.678;2024-03-23T03:50:54;27.98;;;18.33;;
24715;SDS011;12822;50.124;8.678;2024-03-23T03:53:20;31.67;;;18.38;;
24715;SDS011;12822;50.124;8.678;2024-03-23T03:55:46;30.75;;;17.25;;
24715;SDS011;12822;50.124;8.678;2024-03-23T03:58:12;30.73;;;18.60;;
24715;SDS011;12822;50.124;8.678;2024-03-23T04:00:38;30.30;;;19.63;;
24715;SDS011;12822;50.124;8.678;2024-03-23T04:03:04;34.47;;;19.13;;
24715;SDS011;12822;50.124;8.678;2024-03-23T04:05:30;35.45;;;19.23;;
24715;SDS011;12822;50.124;8.678;2024-03-23T04:07:56;35.55;;;21.25;;
24715;SDS011;12822;50.124;8.678;2024-03-23T04:10:22;44.03;;;24.83;;
24715;SDS011;12822;50.124;8.678;2024-03-23T04:12:48;44.40;;;24.02;;
24715;SDS011;12822;50.124;8.678;2024-03-23T04:15:14;46.63;;;25.42;;
24715;SDS011;12822;50.124;8.678;2024-03-23T04:17:40;47.47;;;25.70;;
24715;SDS011;12822;50.124;8.678;2024-03-23T04:20:08;45.45;;;24.20;;
24715;SDS011;12822;50.124;8.678;2024-03-23T04:22:36;40.80;;;22.75;;
24715;SDS011;12822;50.124;8.678;2024-03-23T04:25:02;37.85;;;22.40;;
24715;SDS011;12822;50.124;8.678;2024-03-23T04:27:32;33.35;;;18.45;;
24715;SDS011;12822;50.124;8.678;2024-03-23T04:29:58;19.63;;;10.68;;
24715;SDS011;12822;50.124;8.678;2024-03-23T04:32:25;9.93;;;6.75;;
24715;SDS011;12822;50.124;8.678;2024-03-23T04:34:52;8.68;;;5.25;;
24715;SDS011;12822;50.124;8.678;2024-03-23T04:37:18;6.70;;;4.18;;
24715;SDS011;12822;50.124;8.678;2024-03-23T04:39:44;5.45;;;3.00;;
24715;SDS011;12822;50.124;8.678;2024-03-23T04:42:10;4.60;;;2.50;;
24715;SDS011;12822;50.124;8.678;2024-03-23T04:44:37;4.03;;;2.60;;
24715;SDS011;12822;50.124;8.678;2024-03-23T04:47:03;4.65;;;2.25;;
24715;SDS011;12822;50.124;8.678;2024-03-23T04:49:30;3.05;;;1.90;;
24715;SDS011;12822;50.124;8.678;2024-03-23T04:51:56;3.08;;;1.90;;
24715;SDS011;12822;50.124;8.678;2024-03-23T04:54:23;3.15;;;1.60;;
24715;SDS011;12822;50.124;8.678;2024-03-23T04:56:49;1.98;;;1.17;;
24715;SDS011;12822;50.124;8.678;2024-03-23T04:59:15;2.20;;;1.00;;
24715;SDS011;12822;50.124;8.678;2024-03-23T05:01:41;1.25;;;0.80;;
24715;SDS011;12822;50.124;8.678;2024-03-23T05:04:08;4.28;;;0.80;;
24715;SDS011;12822;50.124;8.678;2024-03-23T05:06:34;1.10;;;0.68;;
24715;SDS011;12822;50.124;8.678;2024-03-23T05:09:00;0.95;;;0.65;;
24715;SDS011;12822;50.124;8.678;2024-03-23T05:11:36;1.75;;;0.80;;
24715;SDS011;12822;50.124;8.678;2024-03-23T05:14:02;1.00;;;0.80;;
24715;SDS011;12822;50.124;8.678;2024-03-23T05:16:28;0.82;;;0.70;;
24715;SDS011;12822;50.124;8.678;2024-03-23T05:18:54;2.25;;;0.70;;
24715;SDS011;12822;50.124;8.678;2024-03-23T05:21:20;1.70;;;0.90;;
24715;SDS011;12822;50.124;8.678;2024-03-23T05:23:46;1.50;;;0.80;;
24715;SDS011;12822;50.124;8.678;2024-03-23T05:26:12;2.38;;;1.00;;
24715;SDS011;12822;50.124;8.678;2024-03-23T05:28:38;1.20;;;0.95;;
24715;SDS011;12822;50.124;8.678;2024-03-23T05:31:04;2.90;;;1.30;;
24715;SDS011;12822;50.124;8.678;2024-03-23T05:33:31;1.33;;;0.70;;
24715;SDS011;12822;50.124;8.678;2024-03-23T05:35:57;1.30;;;0.90;;
24715;SDS011;12822;50.124;8.678;2024-03-23T05:38:24;1.40;;;1.00;;
24715;SDS011;12822;50.124;8.678;2024-03-23T05:40:53;2.97;;;0.82;;
24715;SDS011;12822;50.124;8.678;2024-03-23T05:43:20;1.10;;;0.85;;
24715;SDS011;12822;50.124;8.678;2024-03-23T05:45:46;4.00;;;0.80;;
24715;SDS011;12822;50.124;8.678;2024-03-23T05:48:12;1.90;;;0.80;;
24715;SDS011;12822;50.124;8.678;2024-03-23T05:50:38;2.30;;;1.40;;
24715;SDS011;12822;50.124;8.678;2024-03-23T05:53:04;1.60;;;0.93;;
24715;SDS011;12822;50.124;8.678;2024-03-23T05:55:30;0.95;;;0.85;;
24715;SDS011;12822;50.124;8.678;2024-03-23T05:57:57;1.60;;;1.35;;
24715;SDS011;12822;50.124;8.678;2024-03-23T06:00:25;2.10;;;1.52;;
24715;SDS011;12822;50.124;8.678;2024-03-23T06:02:51;2.17;;;1.40;;
24715;SDS011;12822;50.124;8.678;2024-03-23T06:05:17;2.72;;;1.90;;
24715;SDS011;12822;50.124;8.678;2024-03-23T06:07:43;2.60;;;1.80;;
24715;SDS011;12822;50.124;8.678;2024-03-23T06:10:09;2.63;;;1.70;;
24715;SDS011;12822;50.124;8.678;2024-03-23T06:12:35;4.22;;;1.33;;
24715;SDS011;12822;50.124;8.678;2024-03-23T06:15:01;2.28;;;1.30;;
24715;SDS011;12822;50.124;8.678;2024-03-23T06:17:27;1.67;;;1.10;;
24715;SDS011;12822;50.124;8.678;2024-03-23T06:19:53;1.05;;;0.80;;
24715;SDS011;12822;50.124;8.678;2024-03-23T06:22:19;2.03;;;1.00;;
24715;SDS011;12822;50.124;8.678;2024-03-23T06:24:45;0.63;;;0.50;;
24715;SDS011;12822;50.124;8.678;2024-03-23T06:27:11;1.00;;;0.55;;
24715;SDS011;12822;50.124;8.678;2024-03-23T06:29:38;0.30;;;0.20;;
24715;SDS011;12822;50.124;8.678;2024-03-23T06:32:04;0.22;;;0.20;;
24715;SDS011;12822;50.124;8.678;2024-03-23T06:34:30;1.15;;;0.40;;
24715;SDS011;12822;50.124;8.678;2024-03-23T06:36:56;0.98;;;0.22;;
24715;SDS011;12822;50.124;8.678;2024-03-23T06:39:22;0.40;;;0.28;;
24715;SDS011;12822;50.124;8.678;2024-03-23T06:41:51;0.70;;;0.30;;
24715;SDS011;12822;50.124;8.678;2024-03-23T06:44:17;0.30;;;0.30;;
24715;SDS011;12822;50.124;8.678;2024-03-23T06:46:44;0.20;;;0.20;;
24715;SDS011;12822;50.124;8.678;2024-03-23T06:49:10;1.98;;;0.30;;
24715;SDS011;12822;50.124;8.678;2024-03-23T06:51:36;1.75;;;0.52;;
24715;SDS011;12822;50.124;8.678;2024-03-23T06:54:03;0.38;;;0.20;;
24715;SDS011;12822;50.124;8.678;2024-03-23T06:56:29;0.38;;;0.30;;
24715;SDS011;12822;50.124;8.678;2024-03-23T06:58:56;0.43;;;0.32;;
24715;SDS011;12822;50.124;8.678;2024-03-23T07:01:22;2.95;;;0.50;;
24715;SDS011;12822;50.124;8.678;2024-03-23T07:03:48;0.20;;;0.20;;
24715;SDS011;12822;50.124;8.678;2024-03-23T07:06:14;1.55;;;0.50;;
24715;SDS011;12822;50.124;8.678;2024-03-23T07:08:40;2.00;;;0.47;;
24715;SDS011;12822;50.124;8.678;2024-03-23T07:11:06;0.77;;;0.43;;
24715;SDS011;12822;50.124;8.678;2024-03-23T07:13:32;4.55;;;0.60;;
24715;SDS011;12822;50.124;8.678;2024-03-23T07:15:58;1.95;;;0.60;;
24715;SDS011;12822;50.124;8.678;2024-03-23T07:18:25;1.63;;;0.70;;
24715;SDS011;12822;50.124;8.678;2024-03-23T07:20:57;1.27;;;0.45;;
24715;SDS011;12822;50.124;8.678;2024-03-23T07:23:23;0.73;;;0.50;;
24715;SDS011;12822;50.124;8.678;2024-03-23T07:25:59;2.30;;;0.75;;
24715;SDS011;12822;50.124;8.678;2024-03-23T07:28:25;2.33;;;0.80;;
24715;SDS011;12822;50.124;8.678;2024-03-23T07:31:04;4.55;;;1.23;;
24715;SDS011;12822;50.124;8.678;2024-03-23T07:33:31;3.33;;;1.05;;
24715;SDS011;12822;50.124;8.678;2024-03-23T07:35:57;5.75;;;1.20;;
24715;SDS011;12822;50.124;8.678;2024-03-23T07:38:25;4.88;;;1.17;;
24715;SDS011;12822;50.124;8.678;2024-03-23T07:40:52;2.97;;;1.27;;
24715;SDS011;12822;50.124;8.678;2024-03-23T07:43:21;3.70;;;1.33;;
24715;SDS011;12822;50.124;8.678;2024-03-23T07:45:53;4.00;;;1.13;;
24715;SDS011;12822;50.124;8.678;2024-03-23T07:48:22;5.22;;;1.38;;
24715;SDS011;12822;50.124;8.678;2024-03-23T07:53:23;5.18;;;1.25;;
24715;SDS011;12822;50.124;8.678;2024-03-23T07:55:56;3.53;;;1.17;;
24715;SDS011;12822;50.124;8.678;2024-03-23T07:58:23;5.47;;;1.60;;
24715;SDS011;12822;50.124;8.678;2024-03-23T08:00:49;7.47;;;1.67;;
24715;SDS011;12822;50.124;8.678;2024-03-23T08:03:15;10.07;;;1.55;;
24715;SDS011;12822;50.124;8.678;2024-03-23T08:05:41;8.25;;;2.03;;
24715;SDS011;12822;50.124;8.678;2024-03-23T08:08:07;6.93;;;1.95;;
24715;SDS011;12822;50.124;8.678;2024-03-23T08:10:33;7.78;;;2.03;;
24715;SDS011;12822;50.124;8.678;2024-03-23T08:12:59;8.27;;;2.50;;
24715;SDS011;12822;50.124;8.678;2024-03-23T08:15:25;8.52;;;2.47;;
24715;SDS011;12822;50.124;8.678;2024-03-23T08:17:51;11.55;;;2.58;;
24715;SDS011;12822;50.124;8.678;2024-03-23T08:20:17;10.50;;;3.30;;
24715;SDS011;12822;50.124;8.678;2024-03-23T08:22:43;7.95;;;3.17;;
24715;SDS011;12822;50.124;8.678;2024-03-23T08:25:09;7.45;;;2.53;;
24715;SDS011;12822;50.124;8.678;2024-03-23T08:27:35;7.03;;;2.63;;
24715;SDS011;12822;50.124;8.678;2024-03-23T08:30:01;8.38;;;2.95;;
24715;SDS011;12822;50.124;8.678;2024-03-23T08:32:27;10.93;;;3.00;;
24715;SDS011;12822;50.124;8.678;2024-03-23T08:34:53;7.18;;;3.00;;
24715;SDS011;12822;50.124;8.678;2024-03-23T08:37:20;5.93;;;2.15;;
24715;SDS011;12822;50.124;8.678;2024-03-23T08:39:46;6.82;;;2.65;;
24715;SDS011;12822;50.124;8.678;2024-03-23T08:42:12;12.85;;;3.17;;
24715;SDS011;12822;50.124;8.678;2024-03-23T08:44:38;8.77;;;3.38;;
24715;SDS011;12822;50.124;8.678;2024-03-23T08:47:05;6.78;;;2.88;;
24715;SDS011;12822;50.124;8.678;2024-03-23T08:49:31;11.50;;;3.50;;
24715;SDS011;12822;50.124;8.678;2024-03-23T08:51:57;8.15;;;3.22;;
24715;SDS011;12822;50.124;8.678;2024-03-23T08:54:23;8.35;;;2.92;;
24715;SDS011;12822;50.124;8.678;2024-03-23T08:56:51;6.03;;;2.50;;
24715;SDS011;12822;50.124;8.678;2024-03-23T08:59:17;8.30;;;2.22;;
24715;SDS011;12822;50.124;8.678;2024-03-23T09:01:45;12.82;;;2.83;;
24715;SDS011;12822;50.124;8.678;2024-03-23T09:04:11;9.52;;;2.47;;
24715;SDS011;12822;50.124;8.678;2024-03-23T09:06:37;13.18;;;2.72;;
24715;SDS011;12822;50.124;8.678;2024-03-23T09:09:03;13.57;;;2.85;;
24715;SDS011;12822;50.124;8.678;2024-03-23T09:11:29;10.38;;;2.50;;
24715;SDS011;12822;50.124;8.678;2024-03-23T09:13:54;11.93;;;2.35;;
24715;SDS011;12822;50.124;8.678;2024-03-23T09:16:20;9.98;;;3.03;;
24715;SDS011;12822;50.124;8.678;2024-03-23T09:18:46;11.70;;;3.17;;
24715;SDS011;12822;50.124;8.678;2024-03-23T09:21:12;8.43;;;2.55;;
24715;SDS011;12822;50.124;8.678;2024-03-23T09:23:39;10.88;;;2.83;;
24715;SDS011;12822;50.124;8.678;2024-03-23T09:26:05;12.48;;;3.13;;
24715;SDS011;12822;50.124;8.678;2024-03-23T09:28:32;8.90;;;3.00;;
24715;SDS011;12822;50.124;8.678;2024-03-23T09:33:30;10.27;;;2.83;;
24715;SDS011;12822;50.124;8.678;2024-03-23T09:35:56;10.77;;;2.97;;
24715;SDS011;12822;50.124;8.678;2024-03-23T09:38:23;13.88;;;2.97;;
24715;SDS011;12822;50.124;8.678;2024-03-23T09:40:52;10.35;;;3.30;;
24715;SDS011;12822;50.124;8.678;2024-03-23T09:43:19;14.18;;;3.15;;
24715;SDS011;12822;50.124;8.678;2024-03-23T09:45:45;10.90;;;3.10;;
24715;SDS011;12822;50.124;8.678;2024-03-23T09:48:11;10.23;;;2.60;;
24715;SDS011;12822;50.124;8.678;2024-03-23T09:50:41;9.32;;;2.92;;
24715;SDS011;12822;50.124;8.678;2024-03-23T09:53:08;10.35;;;2.90;;
24715;SDS011;12822;50.124;8.678;2024-03-23T09:55:34;12.50;;;3.42;;
24715;SDS011;12822;50.124;8.678;2024-03-23T09:58:01;24.70;;;3.17;;
24715;SDS011;12822;50.124;8.678;2024-03-23T10:00:27;11.32;;;3.63;;
24715;SDS011;12822;50.124;8.678;2024-03-23T10:02:56;11.52;;;3.17;;
24715;SDS011;12822;50.124;8.678;2024-03-23T10:05:26;13.07;;;3.35;;
24715;SDS011;12822;50.124;8.678;2024-03-23T10:07:52;9.60;;;2.55;;
24715;SDS011;12822;50.124;8.678;2024-03-23T10:10:19;11.23;;;2.90;;
24715;SDS011;12822;50.124;8.678;2024-03-23T10:12:47;16.13;;;2.92;;
24715;SDS011;12822;50.124;8.678;2024-03-23T10:15:24;12.30;;;2.45;;
24715;SDS011;12822;50.124;8.678;2024-03-23T10:17:51;13.15;;;3.17;;
24715;SDS011;12822;50.124;8.678;2024-03-23T10:20:20;11.18;;;2.40;;
24715;SDS011;12822;50.124;8.678;2024-03-23T10:22:50;15.82;;;2.95;;
24715;SDS011;12822;50.124;8.678;2024-03-23T10:25:24;10.38;;;2.97;;
24715;SDS011;12822;50.124;8.678;2024-03-23T10:27:58;8.13;;;2.35;;
24715;SDS011;12822;50.124;8.678;2024-03-23T10:30:24;7.03;;;2.40;;
24715;SDS011;12822;50.124;8.678;2024-03-23T10:32:55;8.25;;;2.30;;
24715;SDS011;12822;50.124;8.678;2024-03-23T10:35:32;8.10;;;2.72;;
24715;SDS011;12822;50.124;8.678;2024-03-23T10:37:58;11.27;;;2.85;;
24715;SDS011;12822;50.124;8.678;2024-03-23T10:40:24;9.35;;;2.25;;
24715;SDS011;12822;50.124;8.678;2024-03-23T10:42:50;10.48;;;2.88;;
24715;SDS011;12822;50.124;8.678;2024-03-23T10:45:18;7.95;;;2.05;;
24715;SDS011;12822;50.124;8.678;2024-03-23T10:47:44;13.82;;;2.67;;
24715;SDS011;12822;50.124;8.678;2024-03-23T10:50:10;8.15;;;2.20;;
24715;SDS011;12822;50.124;8.678;2024-03-23T10:52:36;8.05;;;2.35;;
24715;SDS011;12822;50.124;8.678;2024-03-23T10:55:03;7.78;;;2.17;;
24715;SDS011;12822;50.124;8.678;2024-03-23T10:57:32;9.50;;;2.60;;
24715;SDS011;12822;50.124;8.678;2024-03-23T11:00:01;11.57;;;2.13;;
24715;SDS011;12822;50.124;8.678;2024-03-23T11:02:28;10.85;;;2.33;;
24715;SDS011;12822;50.124;8.678;2024-03-23T11:04:54;9.27;;;2.08;;
24715;SDS011;12822;50.124;8.678;2024-03-23T11:09:50;8.40;;;2.00;;
24715;SDS011;12822;50.124;8.678;2024-03-23T11:12:26;5.88;;;1.67;;
24715;SDS011;12822;50.124;8.678;2024-03-23T11:15:05;6.55;;;1.40;;
24715;SDS011;12822;50.124;8.678;2024-03-23T11:17:32;7.05;;;1.85;;
24715;SDS011;12822;50.124;8.678;2024-03-23T11:19:58;4.88;;;1.50;;
24715;SDS011;12822;50.124;8.678;2024-03-23T11:25:12;7.97;;;2.10;;
24715;SDS011;12822;50.124;8.678;2024-03-23T11:27:38;11.02;;;1.70;;
24715;SDS011;12822;50.124;8.678;2024-03-23T11:30:17;9.57;;;1.95;;
24715;SDS011;12822;50.124;8.678;2024-03-23T11:32:47;6.68;;;1.60;;
24715;SDS011;12822;50.124;8.678;2024-03-23T11:38:05;6.63;;;1.88;;
24715;SDS011;12822;50.124;8.678;2024-03-23T11:40:32;16.05;;;2.25;;
24715;SDS011;12822;50.124;8.678;2024-03-23T11:42:59;9.65;;;2.35;;
24715;SDS011;12822;50.124;8.678;2024-03-23T11:47:08;8.45;;;2.22;;
24715;SDS011;12822;50.124;8.678;2024-03-23T11:49:35;14.73;;;2.70;;
24715;SDS011;12822;50.124;8.678;2024-03-23T11:52:05;10.50;;;2.30;;
24715;SDS011;12822;50.124;8.678;2024-03-23T11:54:31;8.02;;;2.50;;
24715;SDS011;12822;50.124;8.678;2024-03-23T11:56:58;9.30;;;3.05;;
24715;SDS011;12822;50.124;8.678;2024-03-23T12:01:59;12.75;;;2.50;;
24715;SDS011;12822;50.124;8.678;2024-03-23T12:04:26;9.93;;;2.50;;
24715;SDS011;12822;50.124;8.678;2024-03-23T12:07:08;7.78;;;2.05;;
24715;SDS011;12822;50.124;8.678;2024-03-23T12:09:34;6.80;;;2.53;;
24715;SDS011;12822;50.124;8.678;2024-03-23T12:12:05;9.02;;;2.47;;
24715;SDS011;12822;50.124;8.678;2024-03-23T12:14:31;11.85;;;2.70;;
24715;SDS011;12822;50.124;8.678;2024-03-23T12:17:06;11.05;;;2.50;;
24715;SDS011;12822;50.124;8.678;2024-03-23T12:19:32;7.95;;;2.85;;
24715;SDS011;12822;50.124;8.678;2024-03-23T12:21:58;6.20;;;2.47;;
24715;SDS011;12822;50.124;8.678;2024-03-23T12:24:25;6.35;;;2.53;;
24715;SDS011;12822;50.124;8.678;2024-03-23T12:26:51;10.35;;;2.90;;
24715;SDS011;12822;50.124;8.678;2024-03-23T12:29:17;7.88;;;2.53;;
24715;SDS011;12822;50.124;8.678;2024-03-23T12:31:45;8.18;;;2.30;;
24715;SDS011;12822;50.124;8.678;2024-03-23T12:34:11;7.20;;;2.38;;
24715;SDS011;12822;50.124;8.678;2024-03-23T12:36:37;7.90;;;3.05;;
24715;SDS011;12822;50.124;8.678;2024-03-23T12:39:03;8.82;;;2.60;;
24715;SDS011;12822;50.124;8.678;2024-03-23T12:41:29;9.18;;;2.30;;
24715;SDS011;12822;50.124;8.678;2024-03-23T12:43:54;6.07;;;2.28;;
24715;SDS011;12822;50.124;8.678;2024-03-23T12:46:20;6.85;;;2.55;;
24715;SDS011;12822;50.124;8.678;2024-03-23T12:48:48;6.80;;;2.15;;
24715;SDS011;12822;50.124;8.678;2024-03-23T12:51:14;7.70;;;2.25;;
24715;SDS011;12822;50.124;8.678;2024-03-23T12:53:40;10.18;;;2.67;;
24715;SDS011;12822;50.124;8.678;2024-03-23T12:56:06;11.10;;;2.38;;
24715;SDS011;12822;50.124;8.678;2024-03-23T12:58:32;9.93;;;2.60;;
24715;SDS011;12822;50.124;8.678;2024-03-23T13:00:58;8.80;;;2.45;;
24715;SDS011;12822;50.124;8.678;2024-03-23T13:03:24;10.40;;;2.80;;
24715;SDS011;12822;50.124;8.678;2024-03-23T13:05:52;11.10;;;2.50;;
24715;SDS011;12822;50.124;8.678;2024-03-23T13:08:18;8.50;;;2.55;;
24715;SDS011;12822;50.124;8.678;2024-03-23T13:10:44;9.35;;;2.88;;
24715;SDS011;12822;50.124;8.678;2024-03-23T13:13:12;8.73;;;2.47;;
24715;SDS011;12822;50.124;8.678;2024-03-23T13:15:38;14.75;;;2.70;;
24715;SDS011;12822;50.124;8.678;2024-03-23T13:18:04;5.88;;;1.85;;
24715;SDS011;12822;50.124;8.678;2024-03-23T13:20:30;25.48;;;1.77;;
24715;SDS011;12822;50.124;8.678;2024-03-23T13:22:56;4.68;;;0.85;;
24715;SDS011;12822;50.124;8.678;2024-03-23T13:25:22;2.47;;;0.60;;
24715;SDS011;12822;50.124;8.678;2024-03-23T13:27:48;2.33;;;0.90;;
24715;SDS011;12822;50.124;8.678;2024-03-23T13:30:19;2.95;;;0.57;;
24715;SDS011;12822;50.124;8.678;2024-03-23T13:32:45;3.22;;;1.00;;
24715;SDS011;12822;50.124;8.678;2024-03-23T13:35:11;1.60;;;0.73;;
24715;SDS011;12822;50.124;8.678;2024-03-23T13:37:37;6.10;;;1.23;;
24715;SDS011;12822;50.124;8.678;2024-03-23T13:40:04;2.88;;;0.85;;
24715;SDS011;12822;50.124;8.678;2024-03-23T13:42:31;3.90;;;0.98;;
24715;SDS011;12822;50.124;8.678;2024-03-23T13:44:57;3.60;;;1.00;;
24715;SDS011;12822;50.124;8.678;2024-03-23T13:47:24;3.00;;;0.70;;
24715;SDS011;12822;50.124;8.678;2024-03-23T13:49:50;3.88;;;0.75;;
24715;SDS011;12822;50.124;8.678;2024-03-23T13:52:16;2.45;;;0.73;;
24715;SDS011;12822;50.124;8.678;2024-03-23T13:54:47;4.00;;;0.50;;
24715;SDS011;12822;50.124;8.678;2024-03-23T13:57:13;3.90;;;0.70;;
24715;SDS011;12822;50.124;8.678;2024-03-23T13:59:39;1.67;;;0.73;;
24715;SDS011;12822;50.124;8.678;2024-03-23T14:02:05;1.45;;;0.60;;
24715;SDS011;12822;50.124;8.678;2024-03-23T14:04:32;0.77;;;0.40;;
24715;SDS011;12822;50.124;8.678;2024-03-23T14:06:58;1.73;;;0.57;;
24715;SDS011;12822;50.124;8.678;2024-03-23T14:09:24;2.38;;;0.65;;
24715;SDS011;12822;50.124;8.678;2024-03-23T14:11:51;2.30;;;0.80;;
24715;SDS011;12822;50.124;8.678;2024-03-23T14:14:17;1.25;;;0.70;;
24715;SDS011;12822;50.124;8.678;2024-03-23T14:16:43;1.42;;;0.55;;
24715;SDS011;12822;50.124;8.678;2024-03-23T14:19:15;2.45;;;0.93;;
24715;SDS011;12822;50.124;8.678;2024-03-23T14:21:42;2.17;;;0.82;;
24715;SDS011;12822;50.124;8.678;2024-03-23T14:24:08;1.33;;;0.80;;
24715;SDS011;12822;50.124;8.678;2024-03-23T14:26:34;1.75;;;0.80;;
24715;SDS011;12822;50.124;8.678;2024-03-23T14:29:00;1.70;;;0.80;;
24715;SDS011;12822;50.124;8.678;2024-03-23T14:31:27;2.80;;;0.82;;
24715;SDS011;12822;50.124;8.678;2024-03-23T14:33:54;2.85;;;1.00;;
24715;SDS011;12822;50.124;8.678;2024-03-23T14:36:20;3.70;;;1.10;;
24715;SDS011;12822;50.124;8.678;2024-03-23T14:38:49;2.75;;;0.80;;
24715;SDS011;12822;50.124;8.678;2024-03-23T14:41:15;2.65;;;0.95;;
24715;SDS011;12822;50.124;8.678;2024-03-23T14:43:41;3.92;;;1.20;;
24715;SDS011;12822;50.124;8.678;2024-03-23T14:46:15;3.05;;;1.05;;
24715;SDS011;12822;50.124;8.678;2024-03-23T14:48:42;2.25;;;0.90;;
24715;SDS011;12822;50.124;8.678;2024-03-23T14:51:09;2.03;;;0.98;;
24715;SDS011;12822;50.124;8.678;2024-03-23T14:53:36;4.22;;;1.10;;
24715;SDS011;12822;50.124;8.678;2024-03-23T14:56:03;2.75;;;0.70;;
24715;SDS011;12822;50.124;8.678;2024-03-23T14:58:29;4.07;;;1.00;;
24715;SDS011;12822;50.124;8.678;2024-03-23T15:01:02;2.83;;;0.90;;
24715;SDS011;12822;50.124;8.678;2024-03-23T15:03:28;0.90;;;0.65;;
24715;SDS011;12822;50.124;8.678;2024-03-23T15:08:20;3.97;;;0.70;;
24715;SDS011;12822;50.124;8.678;2024-03-23T15:10:49;1.83;;;0.70;;
24715;SDS011;12822;50.124;8.678;2024-03-23T15:13:16;3.15;;;0.80;;
24715;SDS011;12822;50.124;8.678;2024-03-23T15:15:43;2.20;;;0.70;;
24715;SDS011;12822;50.124;8.678;2024-03-23T15:18:10;4.00;;;0.80;;
24715;SDS011;12822;50.124;8.678;2024-03-23T15:20:37;2.55;;;0.68;;
24715;SDS011;12822;50.124;8.678;2024-03-23T15:23:03;3.33;;;1.00;;
24715;SDS011;12822;50.124;8.678;2024-03-23T15:25:30;2.03;;;0.70;;
24715;SDS011;12822;50.124;8.678;2024-03-23T15:27:57;2.72;;;0.80;;
24715;SDS011;12822;50.124;8.678;2024-03-23T15:30:24;2.28;;;0.82;;
24715;SDS011;12822;50.124;8.678;2024-03-23T15:32:50;5.13;;;1.02;;
24715;SDS011;12822;50.124;8.678;2024-03-23T15:35:17;4.63;;;1.17;;
24715;SDS011;12822;50.124;8.678;2024-03-23T15:37:46;2.72;;;0.90;;
24715;SDS011;12822;50.124;8.678;2024-03-23T15:40:12;3.85;;;1.23;;
24715;SDS011;12822;50.124;8.678;2024-03-23T15:42:38;3.97;;;0.82;;
24715;SDS011;12822;50.124;8.678;2024-03-23T15:45:07;3.25;;;1.10;;
24715;SDS011;12822;50.124;8.678;2024-03-23T15:47:34;5.55;;;1.00;;
24715;SDS011;12822;50.124;8.678;2024-03-23T15:50:00;3.95;;;0.85;;